sensor_id;sensor_type;location;lat;lon;timestamp;pressure;altitude;pressure_sealevel;temperature;humidity
4392;BME280;2210;51.938;8.488;2023-12-20T00:00:19;100226.50;;;7.27;100.00
4392;BME280;2210;51.938;8.488;2023-12-20T00:04:19;100221.88;;;7.21;100.00
4392;BME280;2210;51.938;8.488;2023-12-20T00:08:20;100231.84;;;7.15;100.00
4392;BME280;2210;51.938;8.488;2023-12-20T00:12:20;100223.22;;;7.12;100.00
4392;BME280;2210;51.938;8.488;2023-12-20T00:16:20;100244.56;;;7.09;100.00
4392;BME280;2210;51.938;8.488;2023-12-20T00:20:20;100237.81;;;7.05;100.00
4392;BME280;2210;51.938;8.488;2023-12-20T00:24:21;100251.97;;;7.02;100.00
4392;BME280;2210;51.938;8.488;2023-12-20T00:28:21;100253.03;;;7.01;100.00
4392;BME280;2210;51.938;8.488;2023-12-20T00:32:24;100257.69;;;6.94;100.00
4392;BME280;2210;51.938;8.488;2023-12-20T00:36:25;100263.19;;;6.94;100.00
4392;BME280;2210;51.938;8.488;2023-12-20T00:40:25;100259.19;;;6.90;100.00
4392;BME280;2210;51.938;8.488;2023-12-20T00:44:25;100267.41;;;6.90;100.00
4392;BME280;2210;51.938;8.488;2023-12-20T00:48:26;100259.00;;;6.85;100.00
4392;BME280;2210;51.938;8.488;2023-12-20T00:52:31;100248.91;;;6.85;100.00
4392;BME280;2210;51.938;8.488;2023-12-20T00:56:31;100250.19;;;6.83;100.00
4392;BME280;2210;51.938;8.488;2023-12-20T01:00:31;100258.22;;;6.78;100.00
4392;BME280;2210;51.938;8.488;2023-12-20T01:04:32;100264.16;;;6.74;100.00
4392;BME280;2210;51.938;8.488;2023-12-20T01:08:32;100266.88;;;6.74;100.00
4392;BME280;2210;51.938;8.488;2023-12-20T01:12:36;100262.91;;;6.70;100.00
4392;BME280;2210;51.938;8.488;2023-12-20T01:16:36;100253.00;;;6.69;100.00
4392;BME280;2210;51.938;8.488;2023-12-20T01:20:36;100262.25;;;6.68;100.00
4392;BME280;2210;51.938;8.488;2023-12-20T01:24:36;100275.13;;;6.68;100.00
4392;BME280;2210;51.938;8.488;2023-12-20T01:28:37;100269.69;;;6.61;100.00
4392;BME280;2210;51.938;8.488;2023-12-20T01:32:37;100282.59;;;6.54;100.00
4392;BME280;2210;51.938;8.488;2023-12-20T01:36:38;100280.00;;;6.59;100.00
4392;BME280;2210;51.938;8.488;2023-12-20T01:40:38;100282.75;;;6.59;100.00
4392;BME280;2210;51.938;8.488;2023-12-20T01:44:38;100276.47;;;6.52;100.00
4392;BME280;2210;51.938;8.488;2023-12-20T01:48:39;100285.13;;;6.49;100.00
4392;BME280;2210;51.938;8.488;2023-12-20T01:52:39;100280.91;;;6.53;100.00
4392;BME280;2210;51.938;8.488;2023-12-20T01:56:39;100286.75;;;6.56;100.00
4392;BME280;2210;51.938;8.488;2023-12-20T02:00:40;100281.94;;;6.52;100.00
4392;BME280;2210;51.938;8.488;2023-12-20T02:04:41;100271.00;;;6.45;100.00
4392;BME280;2210;51.938;8.488;2023-12-20T02:08:41;100284.28;;;6.41;100.00
4392;BME280;2210;51.938;8.488;2023-12-20T02:12:41;100268.03;;;6.47;100.00
4392;BME280;2210;51.938;8.488;2023-12-20T02:16:42;100276.50;;;6.38;100.00
4392;BME280;2210;51.938;8.488;2023-12-20T02:20:42;100263.88;;;6.37;100.00
4392;BME280;2210;51.938;8.488;2023-12-20T02:24:42;100254.25;;;6.28;100.00
4392;BME280;2210;51.938;8.488;2023-12-20T02:28:42;100255.53;;;6.19;100.00
4392;BME280;2210;51.938;8.488;2023-12-20T02:32:43;100248.16;;;6.13;100.00
4392;BME280;2210;51.938;8.488;2023-12-20T02:36:43;100261.03;;;6.12;100.00
4392;BME280;2210;51.938;8.488;2023-12-20T02:40:43;100266.50;;;6.05;100.00
4392;BME280;2210;51.938;8.488;2023-12-20T02:44:43;100261.84;;;6.06;100.00
4392;BME280;2210;51.938;8.488;2023-12-20T02:48:44;100259.13;;;5.99;100.00
4392;BME280;2210;51.938;8.488;2023-12-20T03:07:02;100241.88;;;5.92;100.00
4392;BME280;2210;51.938;8.488;2023-12-20T03:11:03;100247.13;;;5.87;100.00
4392;BME280;2210;51.938;8.488;2023-12-20T03:15:03;100244.59;;;5.92;100.00
4392;BME280;2210;51.938;8.488;2023-12-20T03:19:03;100246.91;;;5.95;100.00
4392;BME280;2210;51.938;8.488;2023-12-20T03:23:04;100249.66;;;5.95;100.00
4392;BME280;2210;51.938;8.488;2023-12-20T03:27:04;100252.38;;;5.95;100.00
4392;BME280;2210;51.938;8.488;2023-12-20T03:31:04;100250.94;;;5.99;100.00
4392;BME280;2210;51.938;8.488;2023-12-20T03:35:05;100255.13;;;5.95;100.00
4392;BME280;2210;51.938;8.488;2023-12-20T03:39:05;100254.75;;;5.98;100.00
4392;BME280;2210;51.938;8.488;2023-12-20T03:43:05;100246.53;;;5.98;100.00
4392;BME280;2210;51.938;8.488;2023-12-20T03:47:06;100246.69;;;5.97;100.00
4392;BME280;2210;51.938;8.488;2023-12-20T03:51:06;100238.31;;;5.98;100.00
4392;BME280;2210;51.938;8.488;2023-12-20T03:55:13;100235.34;;;5.93;100.00
4392;BME280;2210;51.938;8.488;2023-12-20T03:59:13;100226.50;;;5.91;100.00
4392;BME280;2210;51.938;8.488;2023-12-20T04:03:23;100231.16;;;5.90;100.00
4392;BME280;2210;51.938;8.488;2023-12-20T04:07:23;100230.28;;;5.90;100.00
4392;BME280;2210;51.938;8.488;2023-12-20T04:11:23;100233.25;;;5.88;100.00
4392;BME280;2210;51.938;8.488;2023-12-20T04:15:24;100221.47;;;5.88;100.00
4392;BME280;2210;51.938;8.488;2023-12-20T04:19:24;100225.88;;;5.89;100.00
4392;BME280;2210;51.938;8.488;2023-12-20T04:23:27;100220.41;;;5.89;100.00
4392;BME280;2210;51.938;8.488;2023-12-20T04:27:27;100225.47;;;5.85;100.00
4392;BME280;2210;51.938;8.488;2023-12-20T04:31:28;100230.72;;;5.87;100.00
4392;BME280;2210;51.938;8.488;2023-12-20T04:35:28;100224.00;;;5.83;100.00
4392;BME280;2210;51.938;8.488;2023-12-20T04:39:28;100227.75;;;5.88;100.00
4392;BME280;2210;51.938;8.488;2023-12-20T04:43:29;100221.25;;;5.89;100.00
4392;BME280;2210;51.938;8.488;2023-12-20T04:47:29;100224.41;;;5.86;100.00
4392;BME280;2210;51.938;8.488;2023-12-20T04:51:33;100225.03;;;5.88;100.00
4392;BME280;2210;51.938;8.488;2023-12-20T04:55:33;100221.25;;;5.89;100.00
4392;BME280;2210;51.938;8.488;2023-12-20T04:59:33;100227.53;;;5.90;100.00
4392;BME280;2210;51.938;8.488;2023-12-20T05:03:37;100223.16;;;5.89;100.00
4392;BME280;2210;51.938;8.488;2023-12-20T05:07:37;100213.88;;;5.90;100.00
4392;BME280;2210;51.938;8.488;2023-12-20T05:11:43;100222.50;;;5.87;100.00
4392;BME280;2210;51.938;8.488;2023-12-20T05:15:44;100216.00;;;5.88;100.00
4392;BME280;2210;51.938;8.488;2023-12-20T05:19:44;100214.53;;;5.85;100.00
4392;BME280;2210;51.938;8.488;2023-12-20T05:23:45;100200.84;;;5.85;100.00
4392;BME280;2210;51.938;8.488;2023-12-20T05:27:45;100196.63;;;5.83;100.00
4392;BME280;2210;51.938;8.488;2023-12-20T05:31:45;100201.06;;;5.84;100.00
4392;BME280;2210;51.938;8.488;2023-12-20T05:35:46;100205.50;;;5.85;100.00
4392;BME280;2210;51.938;8.488;2023-12-20T05:39:46;100212.63;;;5.86;100.00
4392;BME280;2210;51.938;8.488;2023-12-20T05:43:49;100212.44;;;5.87;100.00
4392;BME280;2210;51.938;8.488;2023-12-20T05:47:49;100218.50;;;5.89;100.00
4392;BME280;2210;51.938;8.488;2023-12-20T05:51:50;100223.16;;;5.89;100.00
4392;BME280;2210;51.938;8.488;2023-12-20T05:55:51;100218.09;;;5.86;100.00
4392;BME280;2210;51.938;8.488;2023-12-20T05:59:51;100218.53;;;5.83;100.00
4392;BME280;2210;51.938;8.488;2023-12-20T06:03:51;100224.19;;;5.88;100.00
4392;BME280;2210;51.938;8.488;2023-12-20T06:07:52;100221.91;;;5.85;100.00
4392;BME280;2210;51.938;8.488;2023-12-20T06:11:52;100224.63;;;5.85;100.00
4392;BME280;2210;51.938;8.488;2023-12-20T06:15:54;100236.19;;;5.87;100.00
4392;BME280;2210;51.938;8.488;2023-12-20T06:19:55;100228.63;;;5.82;100.00
4392;BME280;2210;51.938;8.488;2023-12-20T06:23:55;100235.38;;;5.80;100.00
4392;BME280;2210;51.938;8.488;2023-12-20T06:27:55;100228.84;;;5.81;100.00
4392;BME280;2210;51.938;8.488;2023-12-20T06:31:55;100232.84;;;5.85;100.00
4392;BME280;2210;51.938;8.488;2023-12-20T06:35:56;100213.91;;;5.83;100.00
4392;BME280;2210;51.938;8.488;2023-12-20T06:39:59;100208.03;;;5.80;100.00
4392;BME280;2210;51.938;8.488;2023-12-20T06:44:03;100209.72;;;5.81;100.00
4392;BME280;2210;51.938;8.488;2023-12-20T06:48:03;100212.22;;;5.82;100.00
4392;BME280;2210;51.938;8.488;2023-12-20T06:52:04;100214.75;;;5.84;100.00
4392;BME280;2210;51.938;8.488;2023-12-20T06:56:04;100221.47;;;5.81;100.00
4392;BME280;2210;51.938;8.488;2023-12-20T07:00:05;100208.03;;;5.80;100.00
4392;BME280;2210;51.938;8.488;2023-12-20T07:04:09;100209.72;;;5.81;100.00
4392;BME280;2210;51.938;8.488;2023-12-20T07:08:18;100210.97;;;5.85;100.00
4392;BME280;2210;51.938;8.488;2023-12-20T07:12:19;100214.09;;;5.82;100.00
4392;BME280;2210;51.938;8.488;2023-12-20T07:16:19;100209.50;;;5.82;100.00
4392;BME280;2210;51.938;8.488;2023-12-20T07:20:20;100213.91;;;5.83;100.00
4392;BME280;2210;51.938;8.488;2023-12-20T07:24:20;100205.50;;;5.85;100.00
4392;BME280;2210;51.938;8.488;2023-12-20T07:28:20;100213.06;;;5.83;100.00
4392;BME280;2210;51.938;8.488;2023-12-20T07:32:21;100208.63;;;5.82;100.00
4392;BME280;2210;51.938;8.488;2023-12-20T07:36:21;100205.88;;;5.82;100.00
4392;BME280;2210;51.938;8.488;2023-12-20T07:40:21;100209.28;;;5.84;100.00
4392;BME280;2210;51.938;8.488;2023-12-20T07:44:21;100210.53;;;5.88;100.00
4392;BME280;2210;51.938;8.488;2023-12-20T07:48:22;100212.22;;;5.89;100.00
4392;BME280;2210;51.938;8.488;2023-12-20T07:52:22;100213.25;;;5.88;100.00
4392;BME280;2210;51.938;8.488;2023-12-20T07:56:23;100213.88;;;5.90;100.00
4392;BME280;2210;51.938;8.488;2023-12-20T08:00:23;100219.97;;;5.92;100.00
4392;BME280;2210;51.938;8.488;2023-12-20T08:04:26;100211.34;;;5.88;100.00
4392;BME280;2210;51.938;8.488;2023-12-20T08:08:27;100205.66;;;5.90;100.00
4392;BME280;2210;51.938;8.488;2023-12-20T08:12:28;100206.31;;;5.92;100.00
4392;BME280;2210;51.938;8.488;2023-12-20T08:16:37;100213.47;;;5.93;100.00
4392;BME280;2210;51.938;8.488;2023-12-20T08:20:38;100202.50;;;5.93;100.00
4392;BME280;2210;51.938;8.488;2023-12-20T08:24:38;100205.88;;;5.95;100.00
4392;BME280;2210;51.938;8.488;2023-12-20T08:28:38;100211.34;;;5.95;100.00
4392;BME280;2210;51.938;8.488;2023-12-20T08:32:38;100205.88;;;5.95;100.00
4392;BME280;2210;51.938;8.488;2023-12-20T08:36:39;100209.25;;;5.97;100.00
4392;BME280;2210;51.938;8.488;2023-12-20T08:40:39;100204.19;;;6.01;100.00
4392;BME280;2210;51.938;8.488;2023-12-20T08:44:39;100200.41;;;6.02;100.00
4392;BME280;2210;51.938;8.488;2023-12-20T08:48:39;100194.94;;;6.02;100.00
4392;BME280;2210;51.938;8.488;2023-12-20T08:52:40;100189.25;;;6.03;100.00
4392;BME280;2210;51.938;8.488;2023-12-20T08:56:40;100197.03;;;6.06;100.00
4392;BME280;2210;51.938;8.488;2023-12-20T09:00:40;100189.66;;;6.07;100.00
4392;BME280;2210;51.938;8.488;2023-12-20T09:04:40;100181.44;;;6.07;100.00
4392;BME280;2210;51.938;8.488;2023-12-20T09:08:41;100178.28;;;6.10;100.00
4392;BME280;2210;51.938;8.488;2023-12-20T09:12:44;100171.75;;;6.11;100.00
4392;BME280;2210;51.938;8.488;2023-12-20T09:16:44;100174.47;;;6.11;100.00
4392;BME280;2210;51.938;8.488;2023-12-20T09:20:45;100165.44;;;6.11;100.00
4392;BME280;2210;51.938;8.488;2023-12-20T09:24:45;100167.09;;;6.12;100.00
4392;BME280;2210;51.938;8.488;2023-12-20T09:28:45;100155.31;;;6.11;100.00
4392;BME280;2210;51.938;8.488;2023-12-20T09:32:45;100159.53;;;6.14;100.00
4392;BME280;2210;51.938;8.488;2023-12-20T09:36:46;100148.53;;;6.20;100.00
4392;BME280;2210;51.938;8.488;2023-12-20T09:40:47;100143.50;;;6.24;100.00
4392;BME280;2210;51.938;8.488;2023-12-20T09:44:47;100127.00;;;6.31;100.00
4392;BME280;2210;51.938;8.488;2023-12-20T09:48:47;100127.84;;;6.31;100.00
4392;BME280;2210;51.938;8.488;2023-12-20T09:52:55;100123.66;;;6.29;100.00
4392;BME280;2210;51.938;8.488;2023-12-20T09:56:58;100129.34;;;6.27;100.00
4392;BME280;2210;51.938;8.488;2023-12-20T10:01:01;100123.66;;;6.29;100.00
4392;BME280;2210;51.938;8.488;2023-12-20T10:05:02;100134.81;;;6.27;100.00
4392;BME280;2210;51.938;8.488;2023-12-20T10:09:03;100145.78;;;6.27;100.00
4392;BME280;2210;51.938;8.488;2023-12-20T10:13:06;100130.41;;;6.26;100.00
4392;BME280;2210;51.938;8.488;2023-12-20T10:17:10;100120.28;;;6.27;100.00
4392;BME280;2210;51.938;8.488;2023-12-20T10:21:17;100133.31;;;6.31;100.00
4392;BME280;2210;51.938;8.488;2023-12-20T10:25:24;100124.25;;;6.31;100.00
4392;BME280;2210;51.938;8.488;2023-12-20T10:29:25;100102.53;;;6.36;100.00
4392;BME280;2210;51.938;8.488;2023-12-20T10:33:26;100089.06;;;6.34;100.00
4392;BME280;2210;51.938;8.488;2023-12-20T10:37:26;100098.56;;;6.32;100.00
4392;BME280;2210;51.938;8.488;2023-12-20T10:41:28;100109.28;;;6.33;100.00
4392;BME280;2210;51.938;8.488;2023-12-20T10:45:29;100109.28;;;6.33;100.00
4392;BME280;2210;51.938;8.488;2023-12-20T10:49:30;100095.00;;;6.31;100.00
4392;BME280;2210;51.938;8.488;2023-12-20T10:53:32;100094.09;;;6.37;100.00
4392;BME280;2210;51.938;8.488;2023-12-20T10:57:36;100086.53;;;6.39;100.00
4392;BME280;2210;51.938;8.488;2023-12-20T11:01:38;100090.72;;;6.42;100.00
4392;BME280;2210;51.938;8.488;2023-12-20T11:05:49;100086.06;;;6.43;100.00
4392;BME280;2210;51.938;8.488;2023-12-20T11:10:20;100082.28;;;6.44;100.00
4392;BME280;2210;51.938;8.488;2023-12-20T11:14:35;100085.47;;;6.40;100.00
4392;BME280;2210;51.938;8.488;2023-12-20T11:18:40;100087.31;;;6.47;100.00
4392;BME280;2210;51.938;8.488;2023-12-20T11:22:52;100084.34;;;6.48;100.00
4392;BME280;2210;51.938;8.488;2023-12-20T11:26:56;100091.69;;;6.54;100.00
4392;BME280;2210;51.938;8.488;2023-12-20T11:30:58;100083.44;;;6.61;100.00
4392;BME280;2210;51.938;8.488;2023-12-20T11:35:21;100077.66;;;6.69;100.00
4392;BME280;2210;51.938;8.488;2023-12-20T11:39:21;100080.31;;;6.83;100.00
4392;BME280;2210;51.938;8.488;2023-12-20T11:43:35;100062.53;;;6.92;100.00
4392;BME280;2210;51.938;8.488;2023-12-20T11:47:36;100049.03;;;6.90;100.00
4392;BME280;2210;51.938;8.488;2023-12-20T11:51:40;100059.50;;;7.00;100.00
4392;BME280;2210;51.938;8.488;2023-12-20T11:55:40;100063.63;;;7.09;100.00
4392;BME280;2210;51.938;8.488;2023-12-20T11:59:42;100053.41;;;7.17;100.00
4392;BME280;2210;51.938;8.488;2023-12-20T12:03:43;100039.56;;;7.12;100.00
4392;BME280;2210;51.938;8.488;2023-12-20T12:07:43;100037.19;;;7.15;100.00
4392;BME280;2210;51.938;8.488;2023-12-20T12:11:43;100025.84;;;7.12;100.00
4392;BME280;2210;51.938;8.488;2023-12-20T12:15:45;100035.19;;;7.04;100.00
4392;BME280;2210;51.938;8.488;2023-12-20T12:19:47;100043.09;;;6.94;100.00
4392;BME280;2210;51.938;8.488;2023-12-20T12:23:47;100039.50;;;6.93;100.00
4392;BME280;2210;51.938;8.488;2023-12-20T12:27:47;100036.78;;;6.93;100.00
4392;BME280;2210;51.938;8.488;2023-12-20T12:31:47;100026.66;;;6.94;100.00
4392;BME280;2210;51.938;8.488;2023-12-20T12:35:48;100019.91;;;6.96;100.00
4392;BME280;2210;51.938;8.488;2023-12-20T12:39:48;100027.66;;;6.99;100.00
4392;BME280;2210;51.938;8.488;2023-12-20T12:43:48;100016.22;;;7.02;100.00
4392;BME280;2210;51.938;8.488;2023-12-20T12:47:51;100010.53;;;7.04;100.00
4392;BME280;2210;51.938;8.488;2023-12-20T12:51:55;100010.31;;;7.05;100.00
4392;BME280;2210;51.938;8.488;2023-12-20T12:55:58;100020.66;;;7.03;100.00
4392;BME280;2210;51.938;8.488;2023-12-20T13:00:01;99997.44;;;7.06;100.00
4392;BME280;2210;51.938;8.488;2023-12-20T13:04:03;99994.41;;;7.14;100.00
4392;BME280;2210;51.938;8.488;2023-12-20T13:08:06;99988.22;;;7.19;100.00
4392;BME280;2210;51.938;8.488;2023-12-20T13:12:07;100000.03;;;7.19;100.00
4392;BME280;2210;51.938;8.488;2023-12-20T13:16:07;99991.44;;;7.16;100.00
4392;BME280;2210;51.938;8.488;2023-12-20T13:20:08;99982.97;;;7.17;100.00
4392;BME280;2210;51.938;8.488;2023-12-20T13:24:11;99983.66;;;7.13;100.00
4392;BME280;2210;51.938;8.488;2023-12-20T13:28:20;100041.00;;;6.70;100.00
4392;BME280;2210;51.938;8.488;2023-12-20T13:32:23;100033.47;;;6.02;100.00
4392;BME280;2210;51.938;8.488;2023-12-20T13:36:23;100024.09;;;5.78;100.00
4392;BME280;2210;51.938;8.488;2023-12-20T13:40:24;100027.56;;;5.60;100.00
4392;BME280;2210;51.938;8.488;2023-12-20T13:44:25;100029.03;;;5.62;100.00
4392;BME280;2210;51.938;8.488;2023-12-20T13:48:25;100036.66;;;5.47;100.00
4392;BME280;2210;51.938;8.488;2023-12-20T13:52:25;100036.03;;;5.45;100.00
4392;BME280;2210;51.938;8.488;2023-12-20T13:56:26;100032.69;;;5.43;100.00
4392;BME280;2210;51.938;8.488;2023-12-20T14:00:27;100030.75;;;5.56;100.00
4392;BME280;2210;51.938;8.488;2023-12-20T14:04:39;100027.59;;;5.53;100.00
4392;BME280;2210;51.938;8.488;2023-12-20T14:08:40;100023.13;;;5.58;100.00
4392;BME280;2210;51.938;8.488;2023-12-20T14:12:41;100015.34;;;5.62;100.00
4392;BME280;2210;51.938;8.488;2023-12-20T14:16:48;100011.13;;;5.66;100.00
4392;BME280;2210;51.938;8.488;2023-12-20T14:20:51;100020.78;;;5.69;100.00
4392;BME280;2210;51.938;8.488;2023-12-20T14:24:55;100005.84;;;5.71;100.00
4392;BME280;2210;51.938;8.488;2023-12-20T14:29:00;99988.38;;;5.72;100.00
4392;BME280;2210;51.938;8.488;2023-12-20T14:33:04;99993.84;;;5.72;100.00
4392;BME280;2210;51.938;8.488;2023-12-20T14:37:04;100009.06;;;5.62;100.00
4392;BME280;2210;51.938;8.488;2023-12-20T14:41:17;99999.78;;;5.63;100.00
4392;BME280;2210;51.938;8.488;2023-12-20T14:45:22;99985.44;;;5.74;100.00
4392;BME280;2210;51.938;8.488;2023-12-20T14:49:26;99996.78;;;5.71;100.00
4392;BME280;2210;51.938;8.488;2023-12-20T14:53:26;99992.16;;;5.71;100.00
4392;BME280;2210;51.938;8.488;2023-12-20T14:57:30;100006.44;;;5.73;100.00
4392;BME280;2210;51.938;8.488;2023-12-20T15:01:48;99995.69;;;5.79;100.00
4392;BME280;2210;51.938;8.488;2023-12-20T15:05:49;99995.09;;;5.77;100.00
4392;BME280;2210;51.938;8.488;2023-12-20T15:09:53;99991.94;;;5.73;100.00
4392;BME280;2210;51.938;8.488;2023-12-20T15:13:56;99992.94;;;5.85;100.00
4392;BME280;2210;51.938;8.488;2023-12-20T15:17:57;99979.91;;;5.81;100.00
4392;BME280;2210;51.938;8.488;2023-12-20T15:22:00;99994.69;;;5.73;100.00
4392;BME280;2210;51.938;8.488;2023-12-20T15:26:03;99986.06;;;5.69;100.00
4392;BME280;2210;51.938;8.488;2023-12-20T15:30:13;99983.34;;;5.69;100.00
4392;BME280;2210;51.938;8.488;2023-12-20T15:34:17;99972.81;;;5.73;100.00
4392;BME280;2210;51.938;8.488;2023-12-20T15:38:20;99966.06;;;5.76;100.00
4392;BME280;2210;51.938;8.488;2023-12-20T15:42:20;99948.97;;;5.80;100.00
4392;BME280;2210;51.938;8.488;2023-12-20T15:46:21;99951.88;;;5.85;100.00
4392;BME280;2210;51.938;8.488;2023-12-20T15:50:24;99941.78;;;5.86;100.00
4392;BME280;2210;51.938;8.488;2023-12-20T15:54:26;99939.44;;;5.89;100.00
4392;BME280;2210;51.938;8.488;2023-12-20T15:58:26;99927.63;;;5.96;100.00
4392;BME280;2210;51.938;8.488;2023-12-20T16:02:29;99916.22;;;6.05;100.00
4392;BME280;2210;51.938;8.488;2023-12-20T16:06:30;99902.66;;;6.17;100.00
4392;BME280;2210;51.938;8.488;2023-12-20T16:10:30;99896.66;;;6.27;100.00
4392;BME280;2210;51.938;8.488;2023-12-20T16:14:32;99909.25;;;6.35;100.00
4392;BME280;2210;51.938;8.488;2023-12-20T16:18:33;99902.00;;;6.40;100.00
4392;BME280;2210;51.938;8.488;2023-12-20T16:22:35;99917.97;;;6.44;100.00
4392;BME280;2210;51.938;8.488;2023-12-20T16:26:36;99938.38;;;6.48;100.00
4392;BME280;2210;51.938;8.488;2023-12-20T16:30:46;99938.53;;;6.53;100.00
4392;BME280;2210;51.938;8.488;2023-12-20T16:34:49;99954.75;;;6.54;100.00
4392;BME280;2210;51.938;8.488;2023-12-20T16:38:55;99942.75;;;6.55;100.00
4392;BME280;2210;51.938;8.488;2023-12-20T16:42:55;99950.72;;;6.57;100.00
4392;BME280;2210;51.938;8.488;2023-12-20T16:47:03;99931.78;;;6.55;100.00
4392;BME280;2210;51.938;8.488;2023-12-20T16:51:03;99951.19;;;6.54;100.00
4392;BME280;2210;51.938;8.488;2023-12-20T16:55:24;99928.19;;;6.55;100.00
4392;BME280;2210;51.938;8.488;2023-12-20T16:59:42;99930.94;;;6.55;100.00
4392;BME280;2210;51.938;8.488;2023-12-20T17:03:48;99933.44;;;6.56;100.00
4392;BME280;2210;51.938;8.488;2023-12-20T17:07:48;99946.94;;;6.58;100.00
4392;BME280;2210;51.938;8.488;2023-12-20T17:11:48;99931.31;;;6.58;100.00
4392;BME280;2210;51.938;8.488;2023-12-20T17:15:55;99944.38;;;6.56;100.00
4392;BME280;2210;51.938;8.488;2023-12-20T17:19:55;99929.88;;;6.56;100.00
4392;BME280;2210;51.938;8.488;2023-12-20T17:23:58;99928.81;;;6.57;100.00
4392;BME280;2210;51.938;8.488;2023-12-20T17:27:59;99918.31;;;6.54;100.00
4392;BME280;2210;51.938;8.488;2023-12-20T17:31:59;99915.34;;;6.55;100.00
4392;BME280;2210;51.938;8.488;2023-12-20T17:36:00;99913.22;;;6.57;100.00
4392;BME280;2210;51.938;8.488;2023-12-20T17:40:00;99905.22;;;6.56;100.00
4392;BME280;2210;51.938;8.488;2023-12-20T17:44:01;99905.22;;;6.56;100.00
4392;BME280;2210;51.938;8.488;2023-12-20T17:48:05;99908.13;;;6.61;100.00
4392;BME280;2210;51.938;8.488;2023-12-20T17:52:05;99902.19;;;6.64;100.00
4392;BME280;2210;51.938;8.488;2023-12-20T17:56:06;99896.72;;;6.64;100.00
4392;BME280;2210;51.938;8.488;2023-12-20T18:00:16;99897.09;;;6.68;100.00
4392;BME280;2210;51.938;8.488;2023-12-20T18:04:17;99877.06;;;6.67;100.00
4392;BME280;2210;51.938;8.488;2023-12-20T18:08:20;99871.00;;;6.65;100.00
4392;BME280;2210;51.938;8.488;2023-12-20T18:12:21;99869.31;;;6.64;100.00
4392;BME280;2210;51.938;8.488;2023-12-20T18:16:21;99871.00;;;6.65;100.00
4392;BME280;2210;51.938;8.488;2023-12-20T18:20:21;99868.84;;;6.67;100.00
4392;BME280;2210;51.938;8.488;2023-12-20T18:24:22;99858.97;;;6.66;100.00
4392;BME280;2210;51.938;8.488;2023-12-20T18:28:26;99859.56;;;6.68;100.00
4392;BME280;2210;51.938;8.488;2023-12-20T18:32:26;99851.13;;;6.70;100.00
4392;BME280;2210;51.938;8.488;2023-12-20T18:36:30;99837.44;;;6.70;100.00
4392;BME280;2210;51.938;8.488;2023-12-20T18:40:30;99833.88;;;6.69;100.00
4392;BME280;2210;51.938;8.488;2023-12-20T18:44:30;99834.09;;;6.68;100.00
4392;BME280;2210;51.938;8.488;2023-12-20T18:48:31;99833.03;;;6.69;100.00
4392;BME280;2210;51.938;8.488;2023-12-20T18:52:45;99834.69;;;6.70;100.00
4392;BME280;2210;51.938;8.488;2023-12-20T18:56:48;99811.72;;;6.71;100.00
4392;BME280;2210;51.938;8.488;2023-12-20T19:00:52;99802.69;;;6.70;100.00
4392;BME280;2210;51.938;8.488;2023-12-20T19:04:55;99791.47;;;6.72;100.00
4392;BME280;2210;51.938;8.488;2023-12-20T19:08:58;99784.94;;;6.73;100.00
4392;BME280;2210;51.938;8.488;2023-12-20T19:12:58;99774.81;;;6.73;100.00
4392;BME280;2210;51.938;8.488;2023-12-20T19:17:04;99769.09;;;6.75;100.00
4392;BME280;2210;51.938;8.488;2023-12-20T19:21:07;99764.47;;;6.75;100.00
4392;BME280;2210;51.938;8.488;2023-12-20T19:25:11;99760.66;;;6.77;100.00
4392;BME280;2210;51.938;8.488;2023-12-20T19:29:13;99750.31;;;6.79;100.00
4392;BME280;2210;51.938;8.488;2023-12-20T19:33:13;99752.56;;;6.82;100.00
4392;BME280;2210;51.938;8.488;2023-12-20T19:37:19;99751.50;;;6.83;100.00
4392;BME280;2210;51.938;8.488;2023-12-20T19:41:19;99744.97;;;6.84;100.00
4392;BME280;2210;51.938;8.488;2023-12-20T19:45:20;99743.88;;;6.85;100.00
4392;BME280;2210;51.938;8.488;2023-12-20T19:49:20;99734.59;;;6.86;100.00
4392;BME280;2210;51.938;8.488;2023-12-20T19:53:21;99722.34;;;6.88;100.00
4392;BME280;2210;51.938;8.488;2023-12-20T19:57:23;99724.25;;;6.88;100.00
4392;BME280;2210;51.938;8.488;2023-12-20T20:01:26;99710.78;;;6.86;100.00
4392;BME280;2210;51.938;8.488;2023-12-20T20:05:29;99694.94;;;6.88;100.00
4392;BME280;2210;51.938;8.488;2023-12-20T20:09:30;99688.41;;;6.89;100.00
4392;BME280;2210;51.938;8.488;2023-12-20T20:13:30;99674.69;;;6.89;100.00
4392;BME280;2210;51.938;8.488;2023-12-20T20:17:31;99674.69;;;6.89;100.00
4392;BME280;2210;51.938;8.488;2023-12-20T20:21:34;99667.06;;;6.91;100.00
4392;BME280;2210;51.938;8.488;2023-12-20T20:25:34;99655.28;;;6.91;100.00
4392;BME280;2210;51.938;8.488;2023-12-20T20:29:35;99641.34;;;6.92;100.00
4392;BME280;2210;51.938;8.488;2023-12-20T20:33:35;99638.38;;;6.94;100.00
4392;BME280;2210;51.938;8.488;2023-12-20T20:37:35;99645.53;;;6.95;100.00
4392;BME280;2210;51.938;8.488;2023-12-20T20:41:36;99633.25;;;6.98;100.00
4392;BME280;2210;51.938;8.488;2023-12-20T20:45:36;99628.59;;;6.98;100.00
4392;BME280;2210;51.938;8.488;2023-12-20T20:49:36;99610.03;;;7.00;100.00
4392;BME280;2210;51.938;8.488;2023-12-20T20:53:37;99603.25;;;7.03;100.00
4392;BME280;2210;51.938;8.488;2023-12-20T20:57:37;99599.41;;;7.04;100.00
4392;BME280;2210;51.938;8.488;2023-12-20T21:01:38;99597.28;;;7.06;100.00
4392;BME280;2210;51.938;8.488;2023-12-20T21:05:44;99592.63;;;7.06;100.00
4392;BME280;2210;51.938;8.488;2023-12-20T21:09:51;99591.31;;;7.09;100.00
4392;BME280;2210;51.938;8.488;2023-12-20T21:13:51;99586.69;;;7.09;100.00
4392;BME280;2210;51.938;8.488;2023-12-20T21:17:58;99578.22;;;7.11;100.00
4392;BME280;2210;51.938;8.488;2023-12-20T21:22:04;99571.44;;;7.14;100.00
4392;BME280;2210;51.938;8.488;2023-12-20T21:26:05;99567.59;;;7.15;100.00
4392;BME280;2210;51.938;8.488;2023-12-20T21:30:17;99566.53;;;7.16;100.00
4392;BME280;2210;51.938;8.488;2023-12-20T21:34:17;99556.19;;;7.18;100.00
4392;BME280;2210;51.938;8.488;2023-12-20T21:38:20;99552.34;;;7.19;100.00
4392;BME280;2210;51.938;8.488;2023-12-20T21:42:24;99524.72;;;7.20;100.00
4392;BME280;2210;51.938;8.488;2023-12-20T21:46:27;99512.41;;;7.23;100.00
4392;BME280;2210;51.938;8.488;2023-12-20T21:50:29;99505.03;;;7.23;100.00
4392;BME280;2210;51.938;8.488;2023-12-20T21:54:30;99496.81;;;7.23;100.00
4392;BME280;2210;51.938;8.488;2023-12-20T21:58:39;99493.81;;;7.25;100.00